Time;durP1;ratioP1;P1;durP2;ratioP2;P2;SDS_P1;SDS_P2;PMS_P1;PMS_P2;Temp;Humidity;BMP_temperature;BMP_pressure;BME280_temperature;BME280_humidity;BME280_pressure;Samples;Min_cycle;Max_cycle;Signal;HPM_P1;HPM_P2
2021/08/16 00:01:20;;;;;;;16.48;4.20;;;;;;;17.36;87.01;101096.09;4979404;28;20070;-70
2021/08/16 00:03:49;;;;;;;14.07;4.40;;;;;;;17.38;87.18;101087.06;4979343;28;20492;-69
2021/08/16 00:06:18;;;;;;;17.90;3.63;;;;;;;17.28;87.17;101086.69;4978739;28;20073;-69
2021/08/16 00:08:46;;;;;;;19.60;4.63;;;;;;;17.25;87.51;101079.69;4982289;28;20457;-70
2021/08/16 00:11:14;;;;;;;15.05;4.22;;;;;;;17.26;87.57;101080.53;4982843;28;20348;-70
2021/08/16 00:13:41;;;;;;;14.18;3.95;;;;;;;17.23;87.68;101075.31;4982966;28;20069;-70
2021/08/16 00:16:09;;;;;;;11.50;3.53;;;;;;;17.21;87.93;101082.63;4981701;28;20371;-70
2021/08/16 00:18:37;;;;;;;11.77;3.83;;;;;;;17.19;87.44;101077.31;4982984;28;20496;-70
2021/08/16 00:21:05;;;;;;;16.67;3.97;;;;;;;17.27;87.26;101080.44;4981105;28;20089;-69
2021/08/16 00:23:34;;;;;;;17.35;4.78;;;;;;;17.32;86.79;101077.50;4982110;28;20120;-70
2021/08/16 00:26:03;;;;;;;23.45;5.07;;;;;;;17.35;86.68;101072.81;4981531;28;20310;-70
2021/08/16 00:28:33;;;;;;;11.13;3.72;;;;;;;17.32;86.92;101067.56;4979084;28;20128;-75
2021/08/16 00:31:01;;;;;;;20.85;4.43;;;;;;;17.39;86.69;101078.88;4982974;28;20073;-75
2021/08/16 00:33:29;;;;;;;16.17;4.35;;;;;;;17.28;86.87;101067.81;4982082;28;20085;-75
2021/08/16 00:35:57;;;;;;;15.93;4.10;;;;;;;17.27;87.00;101063.41;4980651;28;20601;-76
2021/08/16 00:38:24;;;;;;;12.60;3.90;;;;;;;17.25;87.18;101070.72;4981474;28;20073;-76
2021/08/16 00:40:54;;;;;;;15.38;3.88;;;;;;;17.22;87.23;101069.06;4983127;28;20066;-76
2021/08/16 00:43:22;;;;;;;17.20;4.25;;;;;;;17.18;87.63;101064.81;4982930;28;20093;-75
2021/08/16 00:45:50;;;;;;;12.95;3.50;;;;;;;17.19;87.52;101066.53;4983163;28;20062;-75
2021/08/16 00:48:17;;;;;;;18.48;3.97;;;;;;;17.16;87.79;101072.97;4982699;28;20060;-75
2021/08/16 00:50:46;;;;;;;21.13;4.88;;;;;;;17.19;87.87;101069.22;4982471;28;20066;-75
2021/08/16 00:53:14;;;;;;;15.57;4.15;;;;;;;17.15;87.74;101073.06;4979843;28;20129;-75
2021/08/16 00:55:43;;;;;;;19.27;4.32;;;;;;;17.19;87.66;101069.22;4980210;28;20468;-76
2021/08/16 00:58:13;;;;;;;10.68;3.92;;;;;;;17.24;87.67;101072.53;4982045;28;20365;-76
2021/08/16 01:00:42;;;;;;;16.48;3.83;;;;;;;17.23;87.91;101072.63;4981574;28;20070;-76
2021/08/16 01:03:11;;;;;;;16.40;3.75;;;;;;;17.24;87.86;101075.22;4982761;28;20596;-75
2021/08/16 01:05:38;;;;;;;15.00;3.58;;;;;;;17.26;87.95;101070.59;4980736;28;20443;-76
2021/08/16 01:08:06;;;;;;;11.75;3.45;;;;;;;17.34;87.59;101071.06;4980556;28;20346;-75
2021/08/16 01:10:34;;;;;;;15.07;3.42;;;;;;;17.34;87.35;101071.06;4984009;28;20074;-69
2021/08/16 01:13:02;;;;;;;18.88;4.50;;;;;;;17.36;87.32;101060.19;4980040;28;20066;-70
2021/08/16 01:15:33;;;;;;;14.38;3.72;;;;;;;17.43;87.38;101066.09;4981663;28;20469;-69
2021/08/16 01:18:02;;;;;;;14.23;3.60;;;;;;;17.40;87.72;101063.56;4977491;28;20062;-70
2021/08/16 01:20:30;;;;;;;15.52;3.78;;;;;;;17.41;87.63;101060.78;4978463;28;20062;-70
2021/08/16 01:22:57;;;;;;;15.43;3.80;;;;;;;17.40;87.38;101066.25;4982159;28;20050;-69
2021/08/16 01:25:25;;;;;;;13.10;4.05;;;;;;;17.40;87.53;101064.47;4978829;28;20069;-70
2021/08/16 01:27:55;;;;;;;14.75;4.30;;;;;;;17.44;87.42;101063.31;4980659;28;20434;-70
2021/08/16 01:30:25;;;;;;;11.48;3.90;;;;;;;17.49;87.15;101063.91;4983736;28;20146;-69
2021/08/16 01:32:52;;;;;;;13.48;4.13;;;;;;;17.54;86.93;101060.97;4980301;28;20097;-69
2021/08/16 01:35:22;;;;;;;15.00;3.42;;;;;;;17.51;86.68;101059.28;4980125;28;20148;-70
2021/08/16 01:37:50;;;;;;;16.60;4.40;;;;;;;17.49;87.07;101060.38;4978951;28;20411;-70
2021/08/16 01:40:19;;;;;;;12.75;3.90;;;;;;;17.55;86.81;101063.56;4980496;28;20428;-70
2021/08/16 01:42:47;;;;;;;10.27;3.42;;;;;;;17.53;86.72;101059.22;4981093;28;20634;-70
2021/08/16 01:45:16;;;;;;;12.27;3.78;;;;;;;17.51;86.88;101055.75;4978182;28;20067;-70
2021/08/16 01:47:44;;;;;;;12.45;3.60;;;;;;;17.50;86.77;101051.28;4980430;28;20422;-70
2021/08/16 01:50:15;;;;;;;13.55;4.47;;;;;;;17.53;86.89;101051.13;4980908;28;20058;-69
2021/08/16 01:52:44;;;;;;;11.95;3.45;;;;;;;17.52;86.70;101052.06;4978113;28;20065;-69
2021/08/16 01:55:17;;;;;;;15.45;3.60;;;;;;;17.52;86.44;101047.56;4980369;28;20117;-69
2021/08/16 01:57:45;;;;;;;11.25;3.42;;;;;;;17.53;87.00;101054.69;4979975;28;20042;-69
2021/08/16 02:00:13;;;;;;;12.27;3.30;;;;;;;17.57;86.46;101058.09;4982324;28;20457;-70
2021/08/16 02:02:43;;;;;;;12.65;3.45;;;;;;;17.59;86.96;101055.28;4980624;28;20454;-69
2021/08/16 02:05:11;;;;;;;14.23;4.00;;;;;;;17.58;86.78;101061.66;4976647;28;20073;-70
2021/08/16 02:07:39;;;;;;;17.60;3.80;;;;;;;17.60;86.70;101060.59;4980615;28;20391;-70
2021/08/16 02:10:08;;;;;;;14.98;3.80;;;;;;;17.60;86.88;101057.88;4978884;28;20066;-70
2021/08/16 02:12:35;;;;;;;15.18;4.55;;;;;;;17.65;86.59;101058.50;4982467;28;20366;-70
2021/08/16 02:15:04;;;;;;;10.70;3.40;;;;;;;17.63;86.75;101057.72;4978513;28;20409;-69
2021/08/16 02:17:32;;;;;;;18.33;4.53;;;;;;;17.66;86.68;101054.00;4979676;28;20082;-70
2021/08/16 02:20:01;;;;;;;13.05;4.13;;;;;;;17.64;86.79;101053.19;4979070;28;20108;-70
2021/08/16 02:22:29;;;;;;;13.98;3.80;;;;;;;17.60;86.81;101054.34;4980822;28;20515;-70
2021/08/16 02:24:57;;;;;;;18.35;4.78;;;;;;;17.58;86.73;101054.41;4981060;28;20117;-69
2021/08/16 02:27:25;;;;;;;14.40;3.80;;;;;;;17.63;86.58;101048.75;4977037;28;20140;-69
2021/08/16 02:29:52;;;;;;;13.48;4.20;;;;;;;17.62;86.20;101049.72;4982872;28;20069;-69
2021/08/16 02:32:20;;;;;;;9.57;3.65;;;;;;;17.58;86.48;101053.56;4977418;28;20062;-69
2021/08/16 02:34:48;;;;;;;19.27;4.60;;;;;;;17.60;86.58;101052.50;4978791;28;20116;-69
2021/08/16 02:37:17;;;;;;;13.52;3.70;;;;;;;17.54;87.10;101050.19;4980639;28;20441;-76
2021/08/16 02:39:45;;;;;;;10.63;2.97;;;;;;;17.59;87.23;101050.78;4978772;28;20113;-69
2021/08/16 02:42:13;;;;;;;8.70;3.13;;;;;;;17.64;87.44;101051.38;4979038;28;20093;-69
2021/08/16 02:44:40;;;;;;;14.73;4.28;;;;;;;17.56;87.52;101056.34;4979777;28;20113;-69
2021/08/16 02:47:08;;;;;;;13.85;3.60;;;;;;;17.59;88.33;101048.06;4980118;28;20078;-69
2021/08/16 02:49:36;;;;;;;13.57;3.50;;;;;;;17.56;88.93;101056.34;4979145;28;20062;-69
2021/08/16 02:52:06;;;;;;;13.20;3.42;;;;;;;17.50;88.68;101051.28;4979388;28;20074;-69
2021/08/16 02:54:35;;;;;;;14.70;3.63;;;;;;;17.52;88.53;101052.06;4980608;28;20066;-71
2021/08/16 02:57:03;;;;;;;17.52;4.35;;;;;;;17.57;88.26;101049.09;4978681;28;20050;-70
2021/08/16 02:59:31;;;;;;;16.48;4.18;;;;;;;17.43;88.33;101050.78;4978398;28;20295;-70
2021/08/16 03:01:59;;;;;;;13.25;3.47;;;;;;;17.46;88.23;101050.59;4977466;28;20132;-70
2021/08/16 03:04:26;;;;;;;17.17;3.90;;;;;;;17.51;88.16;101051.19;4976317;28;20109;-70
2021/08/16 03:06:54;;;;;;;12.45;4.28;;;;;;;17.45;88.02;101046.19;4982309;28;20371;-70
2021/08/16 03:09:26;;;;;;;13.70;3.38;;;;;;;17.42;88.28;101043.66;4980121;28;20623;-70
2021/08/16 03:11:55;;;;;;;14.38;3.72;;;;;;;17.40;88.25;101034.78;4979522;28;20076;-70
2021/08/16 03:14:23;;;;;;;13.98;3.80;;;;;;;17.37;88.09;101043.06;4980088;28;20096;-76
2021/08/16 03:16:51;;;;;;;14.75;4.05;;;;;;;17.32;88.12;101039.75;4979852;28;20105;-76
2021/08/16 03:19:21;;;;;;;12.43;3.85;;;;;;;17.35;88.04;101040.44;4980162;28;20062;-76
2021/08/16 03:21:49;;;;;;;12.50;3.88;;;;;;;17.27;88.51;101042.69;4978872;28;20102;-76
2021/08/16 03:24:17;;;;;;;10.90;3.47;;;;;;;17.24;88.43;101039.31;4980404;28;20087;-70
2021/08/16 03:26:44;;;;;;;13.63;3.72;;;;;;;17.30;88.25;101036.28;4977795;28;20063;-70
2021/08/16 03:29:14;;;;;;;12.68;3.53;;;;;;;17.23;88.16;101037.56;4977160;28;20063;-70
2021/08/16 03:31:42;;;;;;;10.32;3.72;;;;;;;17.24;88.28;101036.63;4978163;28;20062;-70
2021/08/16 03:34:10;;;;;;;13.50;4.35;;;;;;;17.22;88.48;101031.31;4975882;28;20062;-70
2021/08/16 03:36:38;;;;;;;13.35;3.47;;;;;;;17.21;88.58;101031.38;4977938;28;20097;-70
2021/08/16 03:39:06;;;;;;;10.43;3.63;;;;;;;17.23;88.74;101027.66;4978307;28;20439;-69
2021/08/16 03:41:33;;;;;;;14.98;3.65;;;;;;;17.17;88.90;101038.78;4978315;28;20062;-70
2021/08/16 03:44:01;;;;;;;10.70;3.50;;;;;;;17.22;89.10;101025.91;4980680;28;20509;-70
2021/08/16 03:46:30;;;;;;;9.50;3.20;;;;;;;17.27;88.71;101034.59;4983734;28;20066;-70
2021/08/16 03:48:58;;;;;;;7.85;3.65;;;;;;;17.25;89.08;101030.28;4982749;28;20109;-70
2021/08/16 03:51:26;;;;;;;13.70;3.67;;;;;;;17.18;89.34;101025.22;4982459;28;20070;-70
2021/08/16 03:53:54;;;;;;;10.05;3.03;;;;;;;17.17;88.99;101023.47;4982315;28;20090;-70
2021/08/16 03:56:21;;;;;;;11.80;3.47;;;;;;;17.15;88.93;101021.84;4982750;28;20070;-70
2021/08/16 03:58:49;;;;;;;12.52;3.88;;;;;;;17.15;89.33;101019.13;4981487;28;20090;-70
2021/08/16 04:01:17;;;;;;;11.95;4.18;;;;;;;17.16;89.25;101007.38;4982168;28;20153;-70
2021/08/16 04:03:47;;;;;;;10.88;3.60;;;;;;;17.16;89.58;101012.78;4979925;28;20501;-70
2021/08/16 04:06:15;;;;;;;9.90;3.50;;;;;;;17.14;90.00;101012.00;4982934;28;20167;-70
2021/08/16 04:08:43;;;;;;;13.52;3.72;;;;;;;17.16;90.03;101013.66;4982654;28;20437;-70
2021/08/16 04:11:11;;;;;;;14.25;3.20;;;;;;;17.18;90.04;101009.03;4982504;28;20062;-70
2021/08/16 04:13:39;;;;;;;11.45;3.53;;;;;;;17.23;90.11;101010.59;4982505;28;20661;-70
2021/08/16 04:16:07;;;;;;;20.90;4.78;;;;;;;17.22;90.46;101019.66;4980499;28;20113;-74
2021/08/16 04:18:36;;;;;;;16.60;3.60;;;;;;;17.28;89.94;101011.19;4982717;28;20307;-69
2021/08/16 04:21:05;;;;;;;11.10;3.50;;;;;;;17.23;89.79;101016.00;4981159;28;20106;-71
2021/08/16 04:23:33;;;;;;;11.85;3.70;;;;;;;17.22;90.08;101008.88;4984051;28;20098;-71
2021/08/16 04:26:00;;;;;;;14.30;4.28;;;;;;;17.16;90.82;101005.56;4983015;28;20520;-69
2021/08/16 04:28:28;;;;;;;11.35;3.63;;;;;;;17.25;91.67;101012.25;4981650;28;20050;-71
2021/08/16 04:30:56;;;;;;;11.70;4.72;;;;;;;17.15;91.91;101011.03;4981278;28;20369;-71
2021/08/16 04:33:24;;;;;;;10.80;3.95;;;;;;;17.14;92.81;101003.91;4981056;28;20058;-69
2021/08/16 04:35:52;;;;;;;15.60;4.03;;;;;;;17.05;92.51;101009.84;4981147;28;20068;-78
2021/08/16 04:38:23;;;;;;;10.75;4.20;;;;;;;17.11;93.25;101004.06;4983126;28;20077;-75
2021/08/16 04:40:51;;;;;;;8.00;3.33;;;;;;;17.12;92.07;101008.53;4981449;28;20377;-78
2021/08/16 04:43:19;;;;;;;9.98;3.47;;;;;;;17.09;93.25;101003.28;4981673;28;20453;-76
2021/08/16 04:45:47;;;;;;;10.00;3.50;;;;;;;17.10;92.91;101007.75;4982682;28;20097;-76
2021/08/16 04:48:15;;;;;;;10.05;3.70;;;;;;;17.13;92.15;101011.13;4983185;28;20070;-76
2021/08/16 04:50:43;;;;;;;11.77;4.07;;;;;;;17.09;92.79;101022.16;4982919;28;20105;-76
2021/08/16 04:53:11;;;;;;;10.93;3.63;;;;;;;16.85;95.84;101045.97;4982440;28;20132;-76
2021/08/16 04:55:40;;;;;;;7.63;3.15;;;;;;;16.54;97.30;101044.91;4980714;28;20102;-76
2021/08/16 04:58:09;;;;;;;9.98;3.22;;;;;;;16.32;98.31;101050.56;4982327;28;20069;-77
2021/08/16 05:00:37;;;;;;;7.70;2.95;;;;;;;16.27;99.10;101047.25;4981109;28;20092;-79
2021/08/16 05:03:05;;;;;;;6.97;3.15;;;;;;;16.14;100.00;101045.22;4980406;28;20069;-77
2021/08/16 05:05:34;;;;;;;9.80;3.22;;;;;;;16.17;100.00;101047.72;4981485;28;20054;-77
2021/08/16 05:08:02;;;;;;;8.52;4.55;;;;;;;16.15;100.00;101052.31;4978985;28;20066;-77
2021/08/16 05:10:31;;;;;;;12.10;3.70;;;;;;;16.15;100.00;101036.16;4982778;28;20126;-77
2021/08/16 05:13:01;;;;;;;8.88;3.40;;;;;;;15.97;100.00;101040.69;4978291;28;20480;-77
2021/08/16 05:15:29;;;;;;;7.22;3.70;;;;;;;16.06;100.00;101033.97;4981522;28;20072;-78
2021/08/16 05:18:00;;;;;;;9.70;4.25;;;;;;;16.08;100.00;101032.06;4979291;28;20112;-77
2021/08/16 05:20:28;;;;;;;6.47;3.53;;;;;;;16.05;100.00;101038.47;4979989;28;20069;-78
2021/08/16 05:22:56;;;;;;;8.68;3.53;;;;;;;15.96;100.00;101047.03;4980605;28;20063;-76
2021/08/16 05:25:23;;;;;;;9.15;3.35;;;;;;;15.93;100.00;101043.63;4978444;28;20447;-77
2021/08/16 05:27:51;;;;;;;8.07;3.40;;;;;;;16.02;100.00;101043.13;4979037;28;20125;-77
2021/08/16 05:30:21;;;;;;;6.95;2.90;;;;;;;16.02;100.00;101052.09;4978435;28;20062;-76
2021/08/16 05:32:49;;;;;;;7.43;3.00;;;;;;;16.04;100.00;101047.50;4978463;28;20132;-77
2021/08/16 05:35:18;;;;;;;5.53;2.95;;;;;;;15.98;100.00;101045.13;4983620;28;20070;-77
2021/08/16 05:37:46;;;;;;;7.55;3.05;;;;;;;16.05;100.00;101054.59;4979477;28;20298;-70
2021/08/16 05:40:15;;;;;;;10.60;3.78;;;;;;;15.85;100.00;101061.03;4980196;28;20062;-70
2021/08/16 05:42:42;;;;;;;6.28;3.30;;;;;;;15.70;100.00;101048.31;4978314;28;20144;-70
2021/08/16 05:45:11;;;;;;;8.18;3.42;;;;;;;15.71;100.00;101068.88;4981678;28;20426;-70
2021/08/16 05:47:40;;;;;;;8.85;4.18;;;;;;;15.67;100.00;101076.22;4981224;28;20132;-70
2021/08/16 05:50:09;;;;;;;7.32;3.40;;;;;;;15.71;100.00;101078.78;4979175;28;20481;-70
2021/08/16 05:52:40;;;;;;;10.68;3.70;;;;;;;15.70;100.00;101083.28;4977907;28;20130;-70
2021/08/16 05:55:08;;;;;;;8.88;3.92;;;;;;;15.65;100.00;101080.81;4979861;28;20130;-70
2021/08/16 05:57:36;;;;;;;12.20;4.50;;;;;;;15.67;100.00;101081.63;4977838;28;20335;-69
2021/08/16 06:00:05;;;;;;;12.38;4.53;;;;;;;15.69;100.00;101078.84;4978338;28;20481;-72
2021/08/16 06:02:33;;;;;;;10.70;4.53;;;;;;;15.71;100.00;101079.63;4978109;28;20342;-72
2021/08/16 06:05:04;;;;;;;11.23;4.75;;;;;;;15.68;100.00;101082.47;4977257;28;20369;-72
2021/08/16 06:07:33;;;;;;;13.43;4.78;;;;;;;15.74;100.00;101092.09;4978547;28;20590;-71
2021/08/16 06:10:04;;;;;;;14.60;4.85;;;;;;;15.73;100.00;101091.19;4978516;28;20185;-69
2021/08/16 06:12:31;;;;;;;12.02;4.20;;;;;;;15.62;100.00;101093.56;4980060;28;20066;-69
2021/08/16 06:14:59;;;;;;;9.50;4.03;;;;;;;15.43;100.00;101096.28;4976186;28;20065;-70
2021/08/16 06:17:29;;;;;;;11.82;3.63;;;;;;;15.53;100.00;101097.56;4978482;28;20460;-72
2021/08/16 06:19:57;;;;;;;11.52;4.03;;;;;;;15.55;100.00;101092.97;4974735;28;22721;-69
2021/08/16 06:22:26;;;;;;;12.73;4.60;;;;;;;15.46;100.00;101091.63;4979434;28;20460;-71
2021/08/16 06:24:54;;;;;;;10.38;4.13;;;;;;;15.54;100.00;101093.91;4980752;28;20089;-71
2021/08/16 06:27:21;;;;;;;10.35;4.43;;;;;;;15.46;100.00;101106.84;4979990;28;20559;-69
2021/08/16 06:29:49;;;;;;;12.50;4.63;;;;;;;15.48;100.00;101113.91;4980752;28;20463;-70
2021/08/16 06:32:17;;;;;;;13.30;4.47;;;;;;;15.36;100.00;101103.75;4979868;28;20117;-70
2021/08/16 06:34:45;;;;;;;10.10;4.22;;;;;;;15.26;100.00;101122.13;4979957;28;20133;-70
2021/08/16 06:37:12;;;;;;;12.07;4.53;;;;;;;15.37;100.00;101126.13;4981848;28;20157;-71
2021/08/16 06:39:42;;;;;;;12.05;4.32;;;;;;;15.26;100.00;101130.19;4978077;28;20183;-71
2021/08/16 06:42:10;;;;;;;10.50;4.70;;;;;;;15.18;100.00;101131.50;4979754;28;20067;-71
2021/08/16 06:44:38;;;;;;;9.63;4.63;;;;;;;15.09;100.00;101139.06;4977528;28;20077;-71
2021/08/16 06:47:06;;;;;;;13.23;4.60;;;;;;;15.07;100.00;101145.47;4973778;28;20089;-73
2021/08/16 06:49:34;;;;;;;12.80;4.82;;;;;;;15.15;100.00;101137.88;4977983;28;20111;-76
2021/08/16 06:52:02;;;;;;;14.60;4.55;;;;;;;15.10;100.00;101148.88;4973898;28;20140;-77
2021/08/16 06:54:29;;;;;;;13.20;4.32;;;;;;;15.08;100.00;101155.25;4972973;28;20891;-77
2021/08/16 06:57:01;;;;;;;10.23;4.25;;;;;;;15.13;100.00;101156.78;4976968;28;20071;-75
2021/08/16 06:59:29;;;;;;;11.15;5.45;;;;;;;15.06;100.00;101165.19;4974280;28;20066;-76
2021/08/16 07:01:56;;;;;;;11.68;4.65;;;;;;;15.11;100.00;101165.84;4975932;28;20070;-76
2021/08/16 07:04:24;;;;;;;14.15;4.80;;;;;;;15.03;100.00;101165.34;4974763;28;20064;-77
2021/08/16 07:06:53;;;;;;;10.50;4.47;;;;;;;15.05;100.00;101166.13;4981123;28;20985;-77
2021/08/16 07:09:21;;;;;;;8.82;4.20;;;;;;;15.00;98.40;101163.66;4977673;28;20543;-78
2021/08/16 07:11:49;;;;;;;10.98;4.38;;;;;;;15.05;98.61;101166.13;4976100;28;20062;-77
2021/08/16 07:14:19;;;;;;;10.73;4.20;;;;;;;15.22;98.84;101163.56;4973794;28;20307;-76
2021/08/16 07:16:47;;;;;;;10.45;4.68;;;;;;;15.31;99.39;101159.56;4975874;28;20149;-77
2021/08/16 07:19:14;;;;;;;10.98;4.75;;;;;;;15.29;97.30;101167.69;4977431;28;20060;-78
2021/08/16 07:21:46;;;;;;;11.93;4.63;;;;;;;15.34;96.12;101170.19;4975761;28;20070;-78
2021/08/16 07:24:14;;;;;;;13.80;4.95;;;;;;;15.69;98.21;101171.16;4978402;28;20061;-79
2021/08/16 07:26:42;;;;;;;12.35;4.13;;;;;;;15.68;96.78;101171.25;4973470;28;20338;-78
2021/08/16 07:29:10;;;;;;;8.52;4.35;;;;;;;15.69;95.27;101167.63;4975850;28;20066;-78
2021/08/16 07:31:39;;;;;;;15.05;5.85;;;;;;;15.70;95.84;101174.75;4974813;28;20080;-79
2021/08/16 07:34:07;;;;;;;10.32;4.47;;;;;;;15.75;95.90;101180.81;4976001;28;20485;-80
2021/08/16 07:36:35;;;;;;;11.05;4.80;;;;;;;15.89;95.65;101174.75;4975767;28;20149;-80
2021/08/16 07:39:03;;;;;;;9.90;4.15;;;;;;;15.84;94.20;101182.19;4976421;28;20618;-81
2021/08/16 07:41:31;;;;;;;14.25;4.78;;;;;;;16.11;92.51;101184.47;4974519;28;20152;-77
2021/08/16 07:43:59;;;;;;;14.45;4.82;;;;;;;15.90;90.15;101184.56;4976288;28;20105;-80
2021/08/16 07:46:27;;;;;;;12.45;5.05;;;;;;;16.05;91.25;101186.50;4977998;28;20450;-79
2021/08/16 07:48:56;;;;;;;16.25;4.63;;;;;;;16.15;88.96;101177.97;4977966;28;20063;-77
2021/08/16 07:51:24;;;;;;;13.95;5.10;;;;;;;16.38;88.39;101176.84;4979608;28;20319;-77
2021/08/16 07:53:51;;;;;;;12.32;4.65;;;;;;;16.34;87.87;101192.25;4978269;28;20062;-77
2021/08/16 07:56:19;;;;;;;15.30;5.60;;;;;;;16.41;84.59;101191.00;4977404;28;20188;-75
2021/08/16 07:58:47;;;;;;;12.45;5.10;;;;;;;16.12;85.39;101202.34;4974823;28;20448;-72
2021/08/16 08:01:14;;;;;;;16.80;5.25;;;;;;;15.92;85.13;101206.00;4976071;28;20483;-79
2021/08/16 08:03:42;;;;;;;17.23;5.55;;;;;;;15.86;84.95;101217.97;4972847;28;20141;-79
2021/08/16 08:06:12;;;;;;;10.80;5.00;;;;;;;15.81;85.61;101220.00;4978274;28;20055;-77
2021/08/16 08:08:39;;;;;;;12.63;5.68;;;;;;;15.82;86.46;101219.06;4977763;28;20298;-77
2021/08/16 08:11:07;;;;;;;12.23;6.00;;;;;;;15.85;86.21;101218.88;4975105;28;20066;-77
2021/08/16 08:13:35;;;;;;;17.58;7.30;;;;;;;15.99;87.79;101227.19;4976061;28;20376;-77
2021/08/16 08:16:03;;;;;;;15.52;5.60;;;;;;;16.05;86.22;101234.94;4976166;28;20063;-76
2021/08/16 08:18:31;;;;;;;18.50;7.07;;;;;;;16.18;87.29;101224.47;4977958;28;20506;-77
2021/08/16 08:20:58;;;;;;;15.45;5.00;;;;;;;16.24;86.37;101225.97;4975652;28;20062;-77
2021/08/16 08:23:28;;;;;;;11.05;5.13;;;;;;;16.37;86.08;101229.78;4976292;28;20077;-72
2021/08/16 08:25:55;;;;;;;24.05;6.57;;;;;;;16.42;84.72;101232.25;4977292;28;20069;-71
2021/08/16 08:28:23;;;;;;;17.65;6.78;;;;;;;16.31;83.15;101230.13;4976829;28;20619;-71
2021/08/16 08:30:55;;;;;;;20.40;6.75;;;;;;;16.42;84.31;101227.75;4980323;28;20671;-72
2021/08/16 08:33:23;;;;;;;17.67;7.45;;;;;;;16.32;83.10;101242.63;4980493;28;20070;-72
2021/08/16 08:35:52;;;;;;;20.65;7.95;;;;;;;16.86;80.43;101228.28;4982243;28;20105;-72
2021/08/16 08:38:20;;;;;;;15.77;7.03;;;;;;;16.96;79.05;101233.09;4981703;28;20061;-71
2021/08/16 08:40:52;;;;;;;32.30;7.70;;;;;;;16.83;81.38;101237.34;4983838;28;20073;-72
2021/08/16 08:43:24;;;;;;;17.70;6.68;;;;;;;17.03;81.38;101239.03;4982675;28;20066;-75
2021/08/16 08:45:55;;;;;;;21.25;8.68;;;;;;;17.14;80.22;101235.78;4979119;28;20050;-74
2021/08/16 08:48:23;;;;;;;15.38;6.75;;;;;;;17.30;80.22;101242.09;4980408;28;20069;-74
2021/08/16 08:50:51;;;;;;;16.20;6.13;;;;;;;17.42;79.30;101248.66;4979337;28;20062;-75
2021/08/16 08:53:19;;;;;;;17.25;6.88;;;;;;;17.30;78.00;101252.03;4977922;28;20067;-75
2021/08/16 08:55:47;;;;;;;18.55;6.10;;;;;;;17.34;77.25;101259.84;4978384;28;20133;-74
2021/08/16 08:58:19;;;;;;;17.75;6.88;;;;;;;17.30;77.41;101260.97;4983195;28;20123;-76
2021/08/16 09:00:47;;;;;;;17.42;6.40;;;;;;;17.13;77.97;101269.97;4982478;28;20065;-76
2021/08/16 09:03:15;;;;;;;21.75;7.95;;;;;;;16.99;77.80;101265.28;4981149;28;20069;-76
2021/08/16 09:05:49;;;;;;;21.85;7.82;;;;;;;17.03;78.19;101267.84;4983489;28;20090;-76
2021/08/16 09:08:25;;;;;;;20.48;7.63;;;;;;;17.04;77.00;101265.03;4980523;28;20090;-76
2021/08/16 09:10:53;;;;;;;18.80;8.50;;;;;;;16.96;77.53;101273.53;4980021;28;20065;-77
2021/08/16 09:13:26;;;;;;;19.33;8.45;;;;;;;16.79;76.76;101281.59;4978242;28;20149;-72
2021/08/16 09:15:55;;;;;;;19.40;8.13;;;;;;;16.79;77.18;101284.28;4977344;28;20090;-71
2021/08/16 09:18:31;;;;;;;18.92;7.43;;;;;;;17.15;76.87;101283.34;4977030;28;20327;-71
2021/08/16 09:20:59;;;;;;;19.10;8.02;;;;;;;17.12;75.40;101279.00;4980299;28;20077;-71
2021/08/16 09:23:28;;;;;;;19.25;7.50;;;;;;;17.30;75.24;101279.00;4980503;28;20054;-72
2021/08/16 09:25:58;;;;;;;22.92;7.78;;;;;;;17.26;75.00;101283.66;4979675;28;20086;-69
2021/08/16 09:28:29;;;;;;;21.70;8.63;;;;;;;17.15;75.42;101283.34;4975762;28;20468;-71
2021/08/16 09:30:58;;;;;;;17.88;7.78;;;;;;;17.39;74.79;101283.00;4979439;28;20066;-71
2021/08/16 09:33:26;;;;;;;18.67;8.15;;;;;;;17.62;74.93;101292.53;4975984;28;20087;-71
2021/08/16 09:35:55;;;;;;;20.55;8.93;;;;;;;17.23;75.62;101291.94;4979008;28;20090;-71
2021/08/16 09:38:34;;;;;;;21.00;8.40;;;;;;;17.09;76.74;101299.84;4977015;28;20058;-71
2021/08/16 09:41:03;;;;;;;21.05;8.40;;;;;;;16.74;80.99;101311.47;4977342;28;20109;-71
2021/08/16 09:43:32;;;;;;;21.13;8.50;;;;;;;16.63;82.02;101313.81;4978465;28;20063;-72
2021/08/16 09:46:02;;;;;;;20.67;8.35;;;;;;;16.67;81.36;101310.03;4978701;28;20202;-72
2021/08/16 09:48:30;;;;;;;24.73;8.77;;;;;;;16.49;81.53;101316.31;4979431;28;20165;-71
2021/08/16 09:50:58;;;;;;;23.77;8.23;;;;;;;16.68;82.08;101313.59;4981457;28;20373;-71
2021/08/16 09:53:26;;;;;;;19.23;7.45;;;;;;;17.03;82.35;101319.06;4977858;28;20137;-70
2021/08/16 09:56:00;;;;;;;23.42;7.55;;;;;;;17.57;81.59;101321.59;4976951;28;20386;-71
2021/08/16 09:58:29;;;;;;;11.65;5.63;;;;;;;17.28;75.06;101310.53;4978685;28;20069;-71
2021/08/16 10:00:58;;;;;;;13.90;5.43;;;;;;;16.84;74.24;101327.16;4977738;28;20152;-72
2021/08/16 10:03:27;;;;;;;10.95;4.43;;;;;;;16.86;76.18;101328.00;4978564;28;20165;-71
2021/08/16 10:05:56;;;;;;;12.55;4.50;;;;;;;16.79;75.86;101338.19;4979655;28;20077;-72
2021/08/16 10:08:27;;;;;;;12.90;4.35;;;;;;;16.68;73.32;101343.22;4977991;28;20634;-71
2021/08/16 10:10:56;;;;;;;11.85;4.32;;;;;;;16.63;73.07;101343.44;4980968;28;20100;-71
2021/08/16 10:13:25;;;;;;;12.88;4.88;;;;;;;16.86;75.16;101346.88;4979371;28;20229;-71
2021/08/16 10:15:59;;;;;;;13.65;4.93;;;;;;;17.40;71.93;101344.97;4980756;28;20142;-72
2021/08/16 10:18:31;;;;;;;11.02;4.93;;;;;;;17.19;73.11;101357.72;4980084;28;20090;-72
2021/08/16 10:20:59;;;;;;;12.95;4.78;;;;;;;17.14;71.94;101360.66;4982104;28;20062;-71
2021/08/16 10:23:27;;;;;;;11.52;4.72;;;;;;;17.27;71.52;101360.91;4979977;28;20158;-71
2021/08/16 10:25:57;;;;;;;13.38;4.53;;;;;;;17.72;72.88;101355.84;4981223;28;20156;-71
2021/08/16 10:28:27;;;;;;;11.68;4.13;;;;;;;17.36;70.84;101373.91;4975676;28;20074;-71
2021/08/16 10:30:56;;;;;;;14.23;4.70;;;;;;;17.16;71.54;101366.88;4975205;28;20129;-70
2021/08/16 10:33:26;;;;;;;14.18;4.57;;;;;;;17.02;72.88;101369.38;4976563;28;20066;-71
2021/08/16 10:35:55;;;;;;;13.10;4.65;;;;;;;16.68;74.30;101371.03;4981162;28;20117;-71
2021/08/16 10:38:47;;;;;;;15.55;5.85;;;;;;;16.50;78.45;101380.00;4979972;28;20070;-72
2021/08/16 10:41:25;;;;;;;17.75;6.32;;;;;;;15.83;86.52;101406.44;4979212;28;20622;-75
2021/08/16 10:43:53;;;;;;;12.30;4.50;;;;;;;15.18;83.83;101416.44;4978827;28;20062;-75
2021/08/16 10:46:22;;;;;;;12.02;4.38;;;;;;;14.94;84.57;101409.31;4977385;28;20513;-75
2021/08/16 10:49:02;;;;;;;9.73;3.88;;;;;;;14.89;85.33;101416.69;4980298;28;20228;-76
2021/08/16 10:51:42;;;;;;;12.23;3.63;;;;;;;15.07;85.98;101416.88;4979514;28;20062;-76
2021/08/16 10:54:21;;;;;;;17.25;4.32;;;;;;;15.16;84.49;101423.69;4981111;28;20069;-77
2021/08/16 10:56:51;;;;;;;8.38;3.80;;;;;;;14.98;84.90;101415.44;4979021;28;20066;-78
2021/08/16 10:59:20;;;;;;;11.70;4.50;;;;;;;15.26;86.32;101417.84;4977564;28;20062;-78
2021/08/16 11:01:48;;;;;;;13.02;5.30;;;;;;;15.45;86.49;101417.06;4982242;28;20070;-78
2021/08/16 11:04:31;;;;;;;13.45;4.40;;;;;;;15.46;84.50;101421.47;4979601;28;20068;-77
2021/08/16 11:07:01;;;;;;;15.35;5.47;;;;;;;15.58;85.53;101417.38;4980490;28;20456;-78
2021/08/16 11:09:31;;;;;;;9.40;3.70;;;;;;;15.74;82.46;101412.22;4978470;28;20268;-78
2021/08/16 11:12:05;;;;;;;14.05;4.40;;;;;;;15.54;82.07;101408.56;4980853;28;20066;-77
2021/08/16 11:14:34;;;;;;;12.93;3.95;;;;;;;15.55;85.06;101418.41;4977801;28;20066;-77
2021/08/16 11:17:03;;;;;;;10.30;4.20;;;;;;;15.54;84.11;101422.03;4978590;28;20403;-76
2021/08/16 11:19:44;;;;;;;11.88;4.90;;;;;;;15.59;84.10;101427.22;4979740;28;20066;-72
2021/08/16 11:22:14;;;;;;;12.85;4.15;;;;;;;15.60;86.57;101432.53;4977402;28;20120;-75
2021/08/16 11:24:44;;;;;;;10.80;4.00;;;;;;;15.49;83.95;101433.00;4978100;28;20097;-75